Flight Track Log - Related Links

Times and Time Zones

All times are in EDT time to prevent confusion due to time zone crossing. See the N960DL flight status page for this flight to view local times or setup timezone preferences in your user account.

Time Position Orientation Groundspeed Altitude Reporting Facility
EDT Latitude Longitude Course Direction KTS MPH feet Rate Location/Type
Fri 07:39:53 PM 39.8667 -75.2833 270° West 149 171 1,000  Level Philadelphia TRACON
Fri 07:42:00 PM 39.8333 -75.6705 270° West  Level FlightAware Approximate
Fri 07:42:03 PM 39.8475 -75.4539 262° West 242 278 5,500  Level New York Center
Fri 07:43:00 PM 39.8273 -75.8197 258° West  Level FlightAware Approximate
Fri 07:43:01 PM 39.8753 -75.5397 293° West 259 298 8,500  Level New York Center
Fri 07:44:00 PM 39.8029 -75.9662 258° West  Level FlightAware Approximate
Fri 07:44:01 PM 39.8628 -75.6417 261° West 271 312 10,700  Level New York Center
Fri 07:45:00 PM 39.8000 -76.1158 270° West  Level FlightAware Approximate
Fri 07:45:02 PM 39.8431 -75.7647 258° West 328 377 12,000  Level New York Center
Fri 07:46:01 PM 39.8267 -75.9014 261° West 373 429 14,600 2,529 Climbing New York Center
Fri 07:47:03 PM 39.8100 -76.0461 262° West 396 456 17,100 2,016 Climbing New York Center
Fri 07:48:03 PM 39.7917 -76.1744 260° West 407 468 18,700 1,750 Climbing New York Center
Fri 07:49:03 PM 39.7431 -76.3219 247° West 413 475 20,600 1,831 Climbing New York Center
Fri 07:50:01 PM 39.6844 -76.4575 241° Southwest 426 490 22,300 1,676 Climbing New York Center
Fri 07:50:54 PM 39.5992 -76.5719 226° Southwest 448 516 23,700 1,838 Climbing Washington Center
Fri 07:51:52 PM 39.5128 -76.6944 228° Southwest 437 503 25,700 1,780 Climbing Washington Center
Fri 07:52:52 PM 39.4261 -76.8167 227° Southwest 451 519 27,200 1,600 Climbing Washington Center
Fri 07:53:52 PM 39.3394 -76.9358 227° Southwest 457 526 28,900 1,587 Climbing Washington Center
Fri 07:54:53 PM 39.2525 -77.0578 227° Southwest 462 532 30,400 1,328 Climbing Washington Center
Fri 07:55:54 PM 39.1678 -77.1764 227° Southwest 462 532 31,600 1,008 Climbing Washington Center
Fri 07:56:52 PM 39.0786 -77.2922 225° Southwest 462 532 32,400 807 Climbing Washington Center
Fri 07:57:53 PM 38.9872 -77.4103 225° Southwest 462 532 33,200 744 Climbing Washington Center
Fri 07:58:53 PM 38.8981 -77.5175 228° Southwest 457 526 33,900 397 Climbing Washington Center
Fri 07:59:00 PM 38.8852 -77.5108 228° Southwest  Level FlightAware Approximate
Fri 07:59:54 PM 38.8169 -77.6353 229° Southwest 466 536 34,000  Level Washington Center
Fri 08:00:52 PM 38.7189 -77.7550 224° Southwest 478 550 34,000  Level Washington Center
Fri 08:01:53 PM 38.6333 -77.8719 227° Southwest 473 544 34,000  Level Washington Center
Fri 08:02:52 PM 38.5536 -78.0050 233° Southwest 473 544 34,000  Level Washington Center
Fri 08:03:52 PM 38.4756 -78.1403 234° Southwest 473 544 34,000  Level Washington Center
Fri 08:04:53 PM 38.3978 -78.2728 233° Southwest 478 550 34,000  Level Washington Center
Fri 08:05:53 PM 38.3217 -78.4022 233° Southwest 471 542 34,000  Level Washington Center
Fri 08:06:54 PM 38.2369 -78.5444 233° Southwest 471 542 34,000  Level Washington Center
Fri 08:07:55 PM 38.1694 -78.6661 235° Southwest 471 542 34,000  Level Washington Center
Fri 08:08:52 PM 38.0822 -78.8075 232° Southwest 471 542 34,000  Level Washington Center
Fri 08:09:52 PM 38.0058 -78.9361 233° Southwest 471 542 34,000  Level Washington Center
Fri 08:10:53 PM 37.9269 -79.0642 232° Southwest 471 542 34,000  Level Washington Center
Fri 08:11:54 PM 37.8442 -79.1839 229° Southwest 471 542 34,000  Level Washington Center
Fri 08:12:52 PM 37.7700 -79.2881 228° Southwest 459 528 34,000  Level Washington Center
Fri 08:13:52 PM 37.6831 -79.4047 227° Southwest 454 522 34,000  Level Washington Center
Fri 08:14:53 PM 37.5914 -79.5311 228° Southwest 454 522 34,000  Level Washington Center
Fri 08:15:54 PM 37.5169 -79.6347 228° Southwest 454 522 34,000  Level Washington Center
Fri 08:16:54 PM 37.4294 -79.7556 228° Southwest 454 522 34,000  Level Washington Center
Fri 08:17:52 PM 37.3461 -79.8686 227° Southwest 454 522 34,000  Level Washington Center
Fri 08:20:08 PM 37.1472 -80.1358 227° Southwest 435 501 34,000  Level Atlanta Center
Fri 08:21:08 PM 37.0756 -80.2381 229° Southwest 435 501 34,000  Level Atlanta Center
Fri 08:22:08 PM 36.9911 -80.3486 226° Southwest 441 507 34,000  Level Atlanta Center
Fri 08:23:08 PM 36.9069 -80.4617 227° Southwest 441 507 34,000  Level Atlanta Center
Fri 08:24:08 PM 36.8228 -80.5744 227° Southwest 435 501 34,000  Level Atlanta Center
Fri 08:25:08 PM 36.7422 -80.6789 226° Southwest 435 501 34,000  Level Atlanta Center
Fri 08:26:08 PM 36.6597 -80.7883 227° Southwest 435 501 34,000  Level Atlanta Center
Fri 08:27:08 PM 36.5750 -80.9031 227° Southwest 435 501 34,000  Level Atlanta Center
Fri 08:28:08 PM 36.4842 -81.0228 227° Southwest 435 501 34,000  Level Atlanta Center
Fri 08:29:08 PM 36.4014 -81.1342 227° Southwest 430 495 34,000  Level Atlanta Center
Fri 08:30:08 PM 36.3183 -81.2431 227° Southwest 430 495 34,000  Level Atlanta Center
Fri 08:31:08 PM 36.2333 -81.3514 226° Southwest 438 504 34,000  Level Atlanta Center
Fri 08:32:08 PM 36.1522 -81.4622 228° Southwest 432 497 34,000  Level Atlanta Center
Fri 08:33:08 PM 36.0669 -81.5703 226° Southwest 432 497 34,000  Level Atlanta Center
Fri 08:34:08 PM 35.9833 -81.6781 226° Southwest 433 498 34,000  Level Atlanta Center
Fri 08:35:08 PM 35.9039 -81.7803 226° Southwest 433 498 34,000  Level Atlanta Center
Fri 08:36:08 PM 35.8161 -81.8850 224° Southwest 433 498 34,000  Level Atlanta Center
Fri 08:37:08 PM 35.7344 -81.9894 226° Southwest 433 498 34,000  Level Atlanta Center
Fri 08:38:08 PM 35.6506 -82.0914 225° Southwest 426 490 34,000  Level Atlanta Center
Fri 08:39:08 PM 35.5689 -82.2006 227° Southwest 426 490 34,000  Level Atlanta Center
Fri 08:40:08 PM 35.4889 -82.3044 227° Southwest 431 496 34,000  Level Atlanta Center
Fri 08:41:08 PM 35.4050 -82.4131 227° Southwest 431 496 34,000 -300 Level Atlanta Center
Fri 08:42:08 PM 35.3289 -82.5089 226° Southwest 437 503 33,400 -900 Descending Atlanta Center
Fri 08:43:08 PM 35.2425 -82.6019 221° Southwest 424 488 32,200 -1,300 Descending Atlanta Center
Fri 08:44:08 PM 35.1519 -82.7025 222° Southwest 424 488 30,800 -1,400 Descending Atlanta Center
Fri 08:45:08 PM 35.0611 -82.8031 222° Southwest 438 504 29,400 -1,300 Descending Atlanta Center
Fri 08:46:08 PM 34.9681 -82.9033 221° Southwest 445 512 28,200 -1,550 Descending Atlanta Center
Fri 08:47:08 PM 34.8647 -83.0136 221° Southwest 450 518 26,300 -1,850 Descending Atlanta Center
Fri 08:48:08 PM 34.7778 -83.1006 219° Southwest 451 519 24,500 -1,150 Descending Atlanta Center
Fri 08:49:08 PM 34.6867 -83.2053 223° Southwest 451 519 24,000 -250 Descending Atlanta Center
Fri 08:50:08 PM 34.5936 -83.3019 221° Southwest 451 519 24,000  Level Atlanta Center
Fri 08:51:08 PM 34.4939 -83.4086 221° Southwest 446 513 24,000 -700 Level Atlanta Center
Fri 08:52:08 PM 34.4025 -83.5075 222° Southwest 446 513 22,600 -1,900 Descending Atlanta Center
Fri 08:53:08 PM 34.3111 -83.6036 221° Southwest 441 507 20,200 -2,350 Descending Atlanta Center
Fri 08:54:08 PM 34.2236 -83.6972 222° Southwest 436 502 17,900 -2,400 Descending Atlanta Center
Fri 08:55:08 PM 34.1406 -83.7853 221° Southwest 425 489 15,400 -2,000 Descending Atlanta Center
Fri 08:56:08 PM 34.0592 -83.8733 222° Southwest 402 463 13,900 -700 Descending Atlanta Center
Fri 08:57:08 PM 33.9800 -83.9586 222° Southwest 397 457 14,000 50 Climbing Atlanta Center
Fri 08:58:08 PM 33.8986 -84.0439 221° Southwest 391 450 14,000 -800 Level Atlanta Center
Fri 08:59:08 PM 33.8233 -84.1164 219° Southwest 391 450 12,400 -1,000 Descending Atlanta Center
Fri 09:00:08 PM 33.7294 -84.1811 210° Southwest 386 444 12,000 -250 Descending Atlanta Center
Fri 09:01:08 PM 33.6417 -84.2408 210° Southwest 379 436 11,900  Descending Atlanta Center
Fri 09:02:08 PM 33.5686 -84.2931 211° Southwest 337 388 12,000 -500 Climbing Atlanta Center
Fri 09:03:08 PM 33.5392 -84.3678 245° Southwest 254 292 10,900 -1,400 Descending Atlanta Center
Fri 09:04:08 PM 33.5453 -84.4525 275° West 236 272 9,200 -1,628 Descending Atlanta Center
Fri 09:06:27 PM 33.5500 -84.6333 272° West 226 260 5,500 -1,477 Descending Atlanta TRACON
Fri 09:07:27 PM 33.5833 -84.6667 320° Northwest 196 226 4,300 -1,200 Descending Atlanta TRACON

Login

Don't have an account? Register now (free) for customized features, flight alerts, and more!